Time;durP1;ratioP1;P1;durP2;ratioP2;P2;SDS_P1;SDS_P2;PMS_P1;PMS_P2;Temp;Humidity;BMP_temperature;BMP_pressure;BME280_temperature;BME280_humidity;BME280_pressure;Samples;Min_cycle;Max_cycle;Signal;HPM_P1;HPM_P2
2023/11/03 00:00:27;;;;;;;3.72;0.70;;;;;;;8.73;97.65;97735.00;5040546;28;20052;-67
2023/11/03 00:02:53;;;;;;;7.05;0.82;;;;;;;8.72;97.50;97737.81;5058519;28;20040;-66
2023/11/03 00:05:18;;;;;;;7.05;1.15;;;;;;;8.82;97.47;97735.50;5055288;28;20051;-67
2023/11/03 00:07:44;;;;;;;4.25;1.00;;;;;;;8.82;95.68;97739.88;5055141;28;20055;-67
2023/11/03 00:10:10;;;;;;;2.78;0.73;;;;;;;8.74;96.17;97736.59;5057074;28;20124;-67
2023/11/03 00:12:37;;;;;;;2.60;0.70;;;;;;;8.84;94.73;97750.78;5057376;28;20481;-66
2023/11/03 00:15:04;;;;;;;4.88;1.17;;;;;;;8.82;95.34;97751.00;5057817;28;20055;-67
2023/11/03 00:17:29;;;;;;;2.72;0.90;;;;;;;8.81;94.47;97753.81;5056626;28;20028;-66
2023/11/03 00:19:55;;;;;;;7.38;1.10;;;;;;;8.83;95.31;97744.81;5056710;28;20047;-66
2023/11/03 00:22:20;;;;;;;10.35;1.63;;;;;;;8.85;94.02;97750.53;5060421;28;20099;-67
2023/11/03 00:24:46;;;;;;;6.05;1.02;;;;;;;8.84;95.27;97755.97;5053688;28;20044;-67
2023/11/03 00:27:11;;;;;;;2.35;0.73;;;;;;;8.85;93.81;97747.19;5038778;28;20049;-67
2023/11/03 00:29:37;;;;;;;4.85;0.80;;;;;;;8.80;95.05;97749.63;5057308;28;20039;-67
2023/11/03 00:32:03;;;;;;;5.63;0.73;;;;;;;8.90;93.74;97760.25;5054089;28;20551;-67
2023/11/03 00:34:29;;;;;;;6.72;0.98;;;;;;;8.89;92.96;97762.03;5045585;28;20043;-67
2023/11/03 00:36:54;;;;;;;3.97;0.70;;;;;;;8.92;93.22;97766.75;5034359;28;20045;-67
2023/11/03 00:39:20;;;;;;;6.50;1.60;;;;;;;8.94;93.22;97769.91;5036585;28;20049;-67
2023/11/03 00:41:51;;;;;;;7.22;0.90;;;;;;;8.92;93.35;97766.75;5032709;28;20045;-67
2023/11/03 00:44:17;;;;;;;3.38;0.75;;;;;;;8.93;93.12;97781.28;5035176;28;20041;-67
2023/11/03 00:46:44;;;;;;;6.20;1.00;;;;;;;8.86;93.50;97775.41;5038464;28;20037;-66
2023/11/03 00:49:12;;;;;;;6.60;1.38;;;;;;;8.77;94.26;97777.47;5041279;28;20121;-67
2023/11/03 00:51:38;;;;;;;6.72;1.00;;;;;;;8.85;92.93;97778.19;5038359;28;20037;-67
2023/11/03 00:54:04;;;;;;;6.03;1.23;;;;;;;8.86;93.13;97787.53;5039533;28;20566;-66
2023/11/03 00:56:30;;;;;;;6.60;0.65;;;;;;;8.88;91.44;97790.69;5051974;28;20425;-67
2023/11/03 00:58:56;;;;;;;6.68;1.13;;;;;;;8.86;91.99;97793.47;5050593;28;20033;-67
2023/11/03 01:01:23;;;;;;;7.05;0.90;;;;;;;8.93;91.47;97789.03;5054773;22;20041;-71
2023/11/03 01:03:49;;;;;;;7.43;1.08;;;;;;;8.89;92.13;97805.16;5017458;28;20047;-69
2023/11/03 01:06:15;;;;;;;6.00;1.00;;;;;;;8.83;91.02;97799.06;5033083;28;20030;-69
2023/11/03 01:08:40;;;;;;;7.05;1.15;;;;;;;8.86;92.12;97810.78;5005459;28;20104;-69
2023/11/03 01:11:09;;;;;;;5.15;0.70;;;;;;;8.80;92.65;97815.03;4989011;28;20038;-69
2023/11/03 01:13:36;;;;;;;5.43;1.00;;;;;;;8.82;91.79;97827.72;5001194;28;20402;-69
2023/11/03 01:16:10;;;;;;;3.60;0.73;;;;;;;8.85;90.82;97817.72;5019104;28;20033;-69
2023/11/03 01:18:39;;;;;;;5.50;0.80;;;;;;;8.83;90.99;97824.13;5017685;28;20029;-69
2023/11/03 01:21:12;;;;;;;5.45;0.85;;;;;;;8.93;92.14;97820.03;5023650;28;20045;-69
2023/11/03 01:23:47;;;;;;;4.25;0.82;;;;;;;8.86;91.13;97816.75;5025281;28;20068;-68
2023/11/03 01:26:13;;;;;;;3.95;1.08;;;;;;;8.84;91.72;97812.81;4990693;28;20116;-68
2023/11/03 01:28:39;;;;;;;5.78;1.60;;;;;;;8.84;91.20;97808.41;4998688;28;20156;-68
2023/11/03 01:31:07;;;;;;;1.98;0.40;;;;;;;8.96;90.35;97814.41;4985579;28;20038;-68
2023/11/03 01:33:34;;;;;;;5.63;0.85;;;;;;;9.04;89.00;97804.78;4999059;28;20048;-69
2023/11/03 01:36:04;;;;;;;5.43;1.20;;;;;;;8.94;89.32;97806.09;4997024;28;20447;-68
2023/11/03 01:38:34;;;;;;;5.05;0.70;;;;;;;8.92;88.85;97815.09;5001003;28;20060;-69
2023/11/03 01:41:01;;;;;;;5.57;1.08;;;;;;;8.80;90.50;97819.38;5002124;28;20033;-69
2023/11/03 01:43:30;;;;;;;3.75;1.00;;;;;;;8.88;89.81;97803.59;5001860;28;20078;-69
2023/11/03 01:45:56;;;;;;;6.13;0.70;;;;;;;8.81;91.07;97805.47;4999843;28;20125;-69
2023/11/03 01:48:24;;;;;;;4.43;0.63;;;;;;;8.79;90.93;97823.78;4996870;28;20034;-69
2023/11/03 01:50:49;;;;;;;1.10;0.50;;;;;;;8.89;89.09;97821.47;5009748;28;20046;-69
2023/11/03 01:53:16;;;;;;;4.40;0.95;;;;;;;8.86;89.63;97824.50;5015925;28;20719;-69
2023/11/03 01:55:42;;;;;;;2.70;1.67;;;;;;;8.84;90.06;97833.47;5020804;28;20553;-69
2023/11/03 01:58:08;;;;;;;3.33;1.17;;;;;;;8.89;89.17;97831.00;5002182;28;20581;-69
2023/11/03 02:00:33;;;;;;;5.13;1.20;;;;;;;8.95;88.13;97835.34;5028392;28;20437;-68
2023/11/03 02:02:59;;;;;;;4.03;1.20;;;;;;;8.94;87.75;97847.44;5001491;28;20034;-69
2023/11/03 02:05:25;;;;;;;5.10;0.90;;;;;;;8.95;89.18;97843.88;4998018;28;20042;-69
2023/11/03 02:07:51;;;;;;;6.18;1.83;;;;;;;8.98;89.04;97849.59;5005067;28;20111;-69
2023/11/03 02:10:16;;;;;;;4.07;1.23;;;;;;;8.94;88.37;97846.66;4996490;28;20069;-69
2023/11/03 02:12:42;;;;;;;7.03;1.15;;;;;;;8.98;88.81;97844.44;4996382;28;20026;-69
2023/11/03 02:15:08;;;;;;;7.13;0.90;;;;;;;8.91;88.86;97844.50;5005222;28;20396;-69
2023/11/03 02:17:35;;;;;;;3.95;0.93;;;;;;;8.84;88.91;97859.31;5020349;28;20045;-69
2023/11/03 02:20:01;;;;;;;2.17;0.50;;;;;;;8.83;88.76;97845.59;5018228;28;20096;-69
2023/11/03 02:22:27;;;;;;;2.72;1.15;;;;;;;8.92;88.69;97848.66;4996856;28;20042;-69
2023/11/03 02:24:52;;;;;;;3.40;1.13;;;;;;;8.82;88.87;97848.41;5002357;28;20029;-69
2023/11/03 02:27:18;;;;;;;5.75;2.30;;;;;;;8.77;89.29;97849.81;5004745;28;20033;-69
2023/11/03 02:29:45;;;;;;;8.63;1.40;;;;;;;8.83;88.68;97852.56;5016644;28;20029;-69
2023/11/03 02:32:12;;;;;;;4.63;1.00;;;;;;;8.84;89.11;97859.31;5016127;28;20033;-68
2023/11/03 02:34:38;;;;;;;2.78;0.98;;;;;;;8.83;89.26;97857.72;5005535;28;20052;-69
2023/11/03 02:37:03;;;;;;;3.17;1.10;;;;;;;8.74;89.68;97875.31;5001709;28;20042;-69
2023/11/03 02:39:30;;;;;;;3.50;1.20;;;;;;;8.81;89.23;97865.69;4999389;28;20113;-69
2023/11/03 02:41:56;;;;;;;3.70;1.20;;;;;;;8.84;89.61;97869.66;5014426;28;20041;-69
2023/11/03 02:44:22;;;;;;;2.33;0.65;;;;;;;8.82;88.57;97867.28;5002403;28;20038;-68
2023/11/03 02:46:47;;;;;;;6.10;1.40;;;;;;;8.74;89.60;97877.91;5017175;28;20069;-69
2023/11/03 02:49:13;;;;;;;5.93;1.35;;;;;;;8.80;88.79;97856.38;5000348;28;20033;-69
2023/11/03 02:51:38;;;;;;;7.38;1.52;;;;;;;8.77;88.52;97873.06;4999470;28;20512;-69
2023/11/03 02:54:04;;;;;;;4.50;1.35;;;;;;;8.82;89.04;97869.06;5014895;28;20087;-69
2023/11/03 02:56:30;;;;;;;3.72;1.05;;;;;;;8.89;88.80;97874.94;5016659;28;20049;-69
2023/11/03 02:58:55;;;;;;;2.95;1.00;;;;;;;8.80;88.39;97876.22;5001302;28;20052;-69
2023/11/03 03:01:29;;;;;;;3.45;1.50;;;;;;;8.84;88.31;97869.66;4999782;28;20045;-68
2023/11/03 03:03:55;;;;;;;5.95;1.20;;;;;;;8.91;88.51;97870.34;5002195;28;20625;-69
2023/11/03 03:06:20;;;;;;;3.03;0.80;;;;;;;8.90;87.67;97879.91;5016533;28;20048;-68
2023/11/03 03:08:48;;;;;;;6.63;1.25;;;;;;;8.90;88.54;97889.44;5019363;28;20453;-69
2023/11/03 03:11:13;;;;;;;3.45;0.98;;;;;;;8.87;89.32;97880.34;5014087;28;20064;-69
2023/11/03 03:13:40;;;;;;;4.15;0.90;;;;;;;8.89;88.34;97872.34;4997838;28;20763;-68
2023/11/03 03:16:07;;;;;;;5.60;1.65;;;;;;;8.87;88.79;97872.59;5016324;28;20120;-69
2023/11/03 03:18:32;;;;;;;8.10;1.38;;;;;;;8.93;88.42;97870.94;5017419;28;20132;-69
2023/11/03 03:20:58;;;;;;;6.25;1.40;;;;;;;9.02;88.47;97874.78;5015803;28;20048;-69
2023/11/03 03:23:24;;;;;;;4.53;0.95;;;;;;;8.89;88.81;97870.56;5015461;28;20056;-69
2023/11/03 03:25:50;;;;;;;7.60;1.27;;;;;;;8.85;89.64;97884.13;5014097;28;20042;-69
2023/11/03 03:28:15;;;;;;;4.35;1.20;;;;;;;8.81;90.13;97876.00;5016491;28;20046;-69
2023/11/03 03:30:42;;;;;;;5.95;1.10;;;;;;;8.73;89.87;97873.72;5013596;28;20037;-69
2023/11/03 03:33:07;;;;;;;5.32;1.48;;;;;;;8.79;90.14;97865.09;5017117;28;20610;-69
2023/11/03 03:35:33;;;;;;;6.18;1.02;;;;;;;8.65;89.92;97872.22;4999659;28;20048;-69
2023/11/03 03:37:58;;;;;;;7.20;1.20;;;;;;;8.68;90.56;97874.38;5012967;28;20033;-69
2023/11/03 03:40:24;;;;;;;6.05;1.30;;;;;;;8.74;89.68;97873.53;5001666;28;20053;-69
2023/11/03 03:42:49;;;;;;;3.35;1.17;;;;;;;8.74;89.43;97885.66;5016138;28;20068;-69
2023/11/03 03:45:16;;;;;;;8.00;1.58;;;;;;;8.74;89.88;97875.31;5019262;28;20053;-69
2023/11/03 03:47:42;;;;;;;10.25;1.65;;;;;;;8.80;89.43;97864.13;5013527;28;20462;-69
2023/11/03 03:50:11;;;;;;;11.27;1.58;;;;;;;8.75;89.04;97880.25;5013926;28;20144;-69
2023/11/03 03:52:36;;;;;;;8.48;1.15;;;;;;;8.69;90.63;97886.28;5018718;28;20030;-68
2023/11/03 03:55:02;;;;;;;8.43;1.08;;;;;;;8.72;90.30;97885.88;5021109;28;20118;-69
2023/11/03 03:57:29;;;;;;;4.88;1.10;;;;;;;8.66;90.35;97883.34;5003277;28;20044;-71
2023/11/03 03:59:54;;;;;;;5.78;0.90;;;;;;;8.55;91.23;97880.47;5014462;28;20369;-68
2023/11/03 04:02:19;;;;;;;7.22;0.98;;;;;;;8.63;91.07;97876.03;5016129;28;20044;-68
2023/11/03 04:04:45;;;;;;;8.90;0.98;;;;;;;8.60;91.18;97881.63;5015648;28;20500;-70
2023/11/03 04:07:10;;;;;;;8.60;1.95;;;;;;;8.57;91.07;97877.69;5016721;28;20063;-68
2023/11/03 04:09:38;;;;;;;7.45;0.95;;;;;;;8.67;91.31;97874.59;5016714;28;20037;-69
2023/11/03 04:12:04;;;;;;;5.22;0.80;;;;;;;8.54;92.18;97878.09;5015956;28;20036;-68
2023/11/03 04:14:29;;;;;;;9.02;1.25;;;;;;;8.48;92.29;97878.94;5015877;28;20472;-69
2023/11/03 04:16:55;;;;;;;11.90;1.50;;;;;;;8.50;92.32;97880.31;5017797;28;20041;-69
2023/11/03 04:19:20;;;;;;;7.40;1.23;;;;;;;8.49;92.53;97888.25;5015599;28;20092;-69
2023/11/03 04:21:46;;;;;;;11.45;1.27;;;;;;;8.48;92.72;97884.91;5020829;28;20041;-69
2023/11/03 04:24:11;;;;;;;7.72;1.40;;;;;;;8.56;92.13;97891.59;5006251;28;20041;-69
2023/11/03 04:26:38;;;;;;;6.45;1.27;;;;;;;8.64;92.20;97891.28;5007114;28;20072;-68
2023/11/03 04:29:04;;;;;;;6.95;1.13;;;;;;;8.51;92.32;97894.00;5023040;28;20029;-68
2023/11/03 04:31:30;;;;;;;7.63;1.35;;;;;;;8.47;92.45;97891.06;5025615;28;20095;-70
2023/11/03 04:33:55;;;;;;;9.50;1.02;;;;;;;8.51;93.09;97889.66;5021986;28;20034;-69
2023/11/03 04:36:21;;;;;;;10.95;1.55;;;;;;;8.54;92.47;97901.34;5021086;28;20041;-69
2023/11/03 04:38:47;;;;;;;5.32;1.10;;;;;;;8.54;92.33;97902.13;5020723;28;20068;-69
2023/11/03 04:41:12;;;;;;;9.48;1.30;;;;;;;8.51;92.69;97909.50;5020736;28;20045;-69
2023/11/03 04:43:38;;;;;;;6.65;1.27;;;;;;;8.46;92.61;97914.53;5020790;28;20041;-69
2023/11/03 04:46:05;;;;;;;12.90;1.20;;;;;;;8.45;93.77;97910.34;5021173;28;20045;-69
2023/11/03 04:48:31;;;;;;;9.43;1.10;;;;;;;8.35;94.92;97927.09;5024145;28;20060;-69
2023/11/03 04:50:57;;;;;;;11.05;1.40;;;;;;;8.43;95.15;97909.78;5022335;28;20149;-68
2023/11/03 04:53:23;;;;;;;7.13;1.05;;;;;;;8.33;95.51;97913.59;5019508;28;20088;-69
2023/11/03 04:55:48;;;;;;;11.80;2.20;;;;;;;8.31;95.88;97925.94;5021542;28;20037;-68
2023/11/03 04:58:15;;;;;;;7.78;1.27;;;;;;;8.33;95.45;97917.97;5019448;28;20088;-69
2023/11/03 05:00:41;;;;;;;19.63;2.22;;;;;;;8.37;95.16;97919.91;5017160;28;20033;-69
2023/11/03 05:03:07;;;;;;;7.50;1.15;;;;;;;8.34;95.03;97933.25;5030473;28;20412;-69
2023/11/03 05:05:33;;;;;;;12.38;1.70;;;;;;;8.30;95.25;97926.13;5021233;28;20496;-68
2023/11/03 05:07:58;;;;;;;5.82;1.60;;;;;;;8.27;95.76;97932.53;5008957;28;21250;-69
2023/11/03 05:10:24;;;;;;;5.63;1.50;;;;;;;8.35;94.68;97931.47;5003215;28;20121;-69
2023/11/03 05:12:50;;;;;;;11.40;1.60;;;;;;;8.24;95.04;97932.94;5022158;28;20124;-69
2023/11/03 05:15:15;;;;;;;10.05;1.80;;;;;;;8.30;95.00;97934.66;5017906;28;20042;-68
2023/11/03 05:17:41;;;;;;;13.32;3.95;;;;;;;8.36;94.73;97933.84;5019158;28;20088;-69
2023/11/03 05:20:08;;;;;;;19.38;2.85;;;;;;;8.39;94.66;97935.97;5020115;28;20038;-69
2023/11/03 05:22:37;;;;;;;6.68;1.17;;;;;;;8.30;94.32;97945.00;5018487;28;20050;-69
2023/11/03 05:25:03;;;;;;;11.40;1.33;;;;;;;8.25;94.51;97954.38;5017884;28;20040;-69
2023/11/03 05:27:29;;;;;;;9.07;1.25;;;;;;;8.30;94.45;97936.47;5015993;28;20124;-69
2023/11/03 05:29:54;;;;;;;11.50;1.83;;;;;;;8.29;95.11;97942.66;5019783;28;20394;-69
2023/11/03 05:32:19;;;;;;;9.43;1.30;;;;;;;8.19;94.77;97961.97;5004259;28;20029;-68
2023/11/03 05:34:45;;;;;;;8.07;1.55;;;;;;;8.24;94.80;97948.41;5017987;28;20033;-69
2023/11/03 05:37:11;;;;;;;9.13;1.20;;;;;;;8.29;94.48;97950.38;5020752;28;20029;-69
2023/11/03 05:39:37;;;;;;;9.05;1.63;;;;;;;8.28;94.29;97951.38;5017530;28;20439;-68
2023/11/03 05:42:04;;;;;;;11.57;1.40;;;;;;;8.28;94.53;97953.97;5017810;28;20038;-69
2023/11/03 05:44:30;;;;;;;21.77;2.42;;;;;;;8.30;93.88;97950.16;5003568;28;20034;-69
2023/11/03 05:46:56;;;;;;;8.90;1.55;;;;;;;8.30;93.79;97963.06;5019585;28;20038;-69
2023/11/03 05:49:21;;;;;;;10.10;1.42;;;;;;;8.25;94.37;97952.59;5019481;28;20045;-69
2023/11/03 05:51:47;;;;;;;15.20;1.95;;;;;;;8.26;94.60;97972.22;5019113;28;20064;-69
2023/11/03 05:54:12;;;;;;;10.23;1.60;;;;;;;8.31;93.84;97969.03;5018002;28;20140;-69
2023/11/03 05:56:38;;;;;;;9.90;1.45;;;;;;;8.19;94.01;97967.13;5018440;28;20038;-69
2023/11/03 05:59:04;;;;;;;12.70;1.92;;;;;;;8.26;94.33;97979.19;5017883;28;20034;-68
2023/11/03 06:01:33;;;;;;;8.07;1.42;;;;;;;8.26;94.31;97981.78;5013782;28;20053;-69
2023/11/03 06:04:02;;;;;;;10.15;1.60;;;;;;;8.21;93.97;97990.13;5014899;28;20038;-68
2023/11/03 06:06:27;;;;;;;11.07;1.48;;;;;;;8.30;94.11;97995.84;5013407;28;20464;-68
2023/11/03 06:08:53;;;;;;;13.18;1.42;;;;;;;8.26;94.68;97992.09;5035825;28;20038;-68
2023/11/03 06:11:19;;;;;;;9.98;1.40;;;;;;;8.26;93.89;97998.06;5018428;28;20038;-68
2023/11/03 06:13:44;;;;;;;7.72;1.75;;;;;;;8.28;94.37;98003.00;5018866;28;20032;-69
2023/11/03 06:16:10;;;;;;;12.73;1.30;;;;;;;8.37;93.67;98010.28;5017243;28;20560;-69
2023/11/03 06:18:35;;;;;;;8.70;1.88;;;;;;;8.36;92.54;98013.88;5019434;28;20037;-68
2023/11/03 06:21:01;;;;;;;8.32;1.45;;;;;;;8.21;94.00;98022.91;5014702;28;20419;-69
2023/11/03 06:23:27;;;;;;;10.80;1.33;;;;;;;8.23;93.81;98031.22;5020598;28;20041;-69
2023/11/03 06:25:52;;;;;;;11.70;1.60;;;;;;;8.17;94.38;98030.28;5016148;28;20034;-68
2023/11/03 06:28:18;;;;;;;7.90;1.40;;;;;;;8.15;94.54;98029.69;5007082;28;20037;-69
2023/11/03 06:30:44;;;;;;;12.00;1.67;;;;;;;8.12;94.66;98037.88;5018761;28;20037;-69
2023/11/03 06:33:09;;;;;;;8.80;1.40;;;;;;;8.17;94.86;98043.19;5022785;28;20413;-69
2023/11/03 06:35:35;;;;;;;9.68;1.10;;;;;;;8.23;94.61;98039.78;5015449;28;20042;-69
2023/11/03 06:38:01;;;;;;;11.05;1.50;;;;;;;8.32;93.17;98046.25;5013052;28;20136;-69
2023/11/03 06:40:26;;;;;;;11.10;1.50;;;;;;;8.21;93.92;98046.91;5015797;28;20033;-69
2023/11/03 06:42:52;;;;;;;13.90;1.45;;;;;;;8.30;94.21;98050.06;5020289;28;20033;-69
2023/11/03 06:45:17;;;;;;;11.23;1.60;;;;;;;8.17;94.37;98056.91;5012092;28;20050;-69
2023/11/03 06:47:43;;;;;;;8.27;1.15;;;;;;;8.37;93.81;98061.94;5000278;28;20038;-69
2023/11/03 06:50:09;;;;;;;5.65;1.30;;;;;;;8.31;93.85;98065.34;4996675;28;20535;-69
2023/11/03 06:52:35;;;;;;;10.90;2.50;;;;;;;8.44;93.67;98061.13;4999779;28;20037;-68
2023/11/03 06:55:01;;;;;;;11.55;2.28;;;;;;;8.39;92.93;98077.22;4987193;28;20097;-69
2023/11/03 06:57:26;;;;;;;10.40;1.38;;;;;;;8.42;92.80;98073.44;5000527;28;20046;-69
2023/11/03 06:59:52;;;;;;;6.15;1.45;;;;;;;8.42;92.70;98063.13;4997623;28;20045;-68
2023/11/03 07:02:17;;;;;;;8.82;1.40;;;;;;;8.47;92.37;98069.25;4993679;28;20484;-68
2023/11/03 07:04:44;;;;;;;12.20;1.40;;;;;;;8.58;91.39;98072.97;4999241;28;20026;-70
2023/11/03 07:07:13;;;;;;;11.48;1.10;;;;;;;8.58;91.82;98078.13;5001295;28;20405;-70
2023/11/03 07:09:38;;;;;;;11.73;1.38;;;;;;;8.64;90.71;98074.69;5000300;28;20026;-70
2023/11/03 07:12:05;;;;;;;14.45;2.55;;;;;;;8.80;90.17;98080.34;4999359;28;20034;-70
2023/11/03 07:14:31;;;;;;;5.10;1.02;;;;;;;8.76;90.36;98082.59;4999383;28;20042;-70
2023/11/03 07:16:57;;;;;;;14.00;1.85;;;;;;;8.84;90.32;98078.94;4998651;28;20041;-71
2023/11/03 07:19:22;;;;;;;6.68;1.10;;;;;;;8.88;89.63;98067.97;5005797;28;20037;-70
2023/11/03 07:21:53;;;;;;;11.00;1.38;;;;;;;8.92;89.67;98074.28;5001530;28;20045;-70
2023/11/03 07:24:21;;;;;;;6.15;0.95;;;;;;;8.96;90.33;98077.25;5001882;28;20033;-70
2023/11/03 07:26:50;;;;;;;12.55;1.17;;;;;;;9.02;89.73;98073.81;4996018;28;20411;-70
2023/11/03 07:29:16;;;;;;;5.78;0.88;;;;;;;9.02;90.30;98081.56;5001989;28;20104;-69
2023/11/03 07:31:42;;;;;;;6.20;0.75;;;;;;;9.09;89.58;98068.59;5018307;28;20041;-70
2023/11/03 07:34:08;;;;;;;7.60;1.38;;;;;;;9.15;88.32;98073.72;5020058;28;20095;-69
2023/11/03 07:36:33;;;;;;;4.22;0.90;;;;;;;9.23;88.07;98061.50;5019977;28;20045;-69
2023/11/03 07:38:59;;;;;;;6.40;1.52;;;;;;;9.23;87.69;98077.81;5021085;28;20117;-70
2023/11/03 07:41:25;;;;;;;11.70;1.20;;;;;;;9.28;88.09;98075.38;5021312;28;20045;-70
2023/11/03 07:43:51;;;;;;;6.75;1.00;;;;;;;9.35;87.28;98068.34;5005321;28;20570;-69
2023/11/03 07:46:19;;;;;;;3.85;1.00;;;;;;;9.32;88.32;98080.91;5015193;28;20048;-70
2023/11/03 07:48:45;;;;;;;6.80;1.77;;;;;;;9.34;88.15;98082.28;5009556;28;20041;-70
2023/11/03 07:51:11;;;;;;;8.35;1.23;;;;;;;9.45;87.09;98087.75;5017993;28;20033;-70
2023/11/03 07:53:36;;;;;;;6.80;1.17;;;;;;;9.48;86.84;98082.94;5022421;28;20503;-71
2023/11/03 07:56:02;;;;;;;10.60;1.25;;;;;;;9.53;85.91;98077.13;5019120;28;20033;-69
2023/11/03 07:58:28;;;;;;;13.00;1.58;;;;;;;9.62;85.32;98073.25;5020383;28;20037;-69
2023/11/03 08:00:56;;;;;;;7.68;1.77;;;;;;;9.74;86.29;98094.81;5001337;28;20039;-71
2023/11/03 08:03:21;;;;;;;6.05;1.17;;;;;;;9.80;85.09;98080.22;5019805;28;20044;-72
2023/11/03 08:05:47;;;;;;;12.00;1.25;;;;;;;10.01;84.95;98091.13;5019463;28;20037;-71
2023/11/03 08:08:14;;;;;;;5.63;1.23;;;;;;;10.30;82.85;98084.38;5021984;28;20036;-70
2023/11/03 08:10:42;;;;;;;8.13;1.85;;;;;;;10.63;81.35;98086.53;5019217;28;20030;-70
2023/11/03 08:13:08;;;;;;;9.20;1.17;;;;;;;10.60;80.47;98084.38;5020619;28;20034;-70
2023/11/03 08:15:33;;;;;;;5.82;1.88;;;;;;;10.79;79.85;98087.69;5016209;28;20033;-70
2023/11/03 08:18:00;;;;;;;12.32;1.73;;;;;;;10.93;79.03;98084.91;5024821;28;20044;-70
2023/11/03 08:20:26;;;;;;;9.68;1.02;;;;;;;11.13;78.11;98085.34;5005438;28;20611;-70
2023/11/03 08:22:51;;;;;;;9.00;1.30;;;;;;;11.27;77.41;98089.31;5020514;28;20053;-70
2023/11/03 08:25:17;;;;;;;7.68;1.40;;;;;;;11.55;76.49;98087.03;5003791;28;20042;-70
2023/11/03 08:27:43;;;;;;;13.32;1.40;;;;;;;11.67;76.02;98101.56;5016194;28;20045;-70
2023/11/03 08:30:09;;;;;;;8.07;1.10;;;;;;;11.73;75.52;98102.44;5020256;28;20065;-71
2023/11/03 08:32:36;;;;;;;5.78;1.20;;;;;;;11.90;74.67;98114.75;5007399;28;20030;-70
2023/11/03 08:35:04;;;;;;;9.85;1.65;;;;;;;11.62;75.60;98124.03;5023827;28;20095;-70
2023/11/03 08:37:30;;;;;;;8.77;1.67;;;;;;;11.25;76.76;98124.28;5013686;28;20053;-71
2023/11/03 08:39:56;;;;;;;8.43;1.48;;;;;;;11.25;77.65;98134.66;5014370;28;20033;-70
2023/11/03 08:42:26;;;;;;;9.75;1.65;;;;;;;10.82;78.94;98139.09;5019930;28;20080;-71
2023/11/03 08:44:52;;;;;;;10.02;1.70;;;;;;;10.52;80.53;98139.91;5006114;28;20038;-69
2023/11/03 08:47:18;;;;;;;8.77;1.45;;;;;;;10.28;82.60;98153.72;5018601;28;20122;-70
2023/11/03 08:49:44;;;;;;;18.02;1.48;;;;;;;10.05;83.52;98159.59;5016592;28;20033;-69
2023/11/03 08:52:10;;;;;;;8.35;1.77;;;;;;;10.01;83.96;98153.25;5020525;28;20037;-70
2023/11/03 08:54:36;;;;;;;17.33;1.17;;;;;;;10.22;83.79;98167.56;5020843;28;20383;-69
2023/11/03 08:57:02;;;;;;;16.10;1.67;;;;;;;10.48;82.89;98177.63;5019115;28;20467;-70
2023/11/03 08:59:28;;;;;;;6.72;1.13;;;;;;;10.68;82.24;98185.16;5018320;28;20052;-70
2023/11/03 09:01:55;;;;;;;11.48;1.77;;;;;;;10.83;81.46;98186.53;5017906;28;20459;-70
2023/11/03 09:04:24;;;;;;;17.00;2.00;;;;;;;10.77;81.61;98188.19;5002719;28;20034;-71
2023/11/03 09:06:50;;;;;;;14.18;1.67;;;;;;;10.76;82.98;98197.00;5021617;28;20034;-71
2023/11/03 09:09:15;;;;;;;11.38;1.60;;;;;;;10.70;82.40;98206.44;5010773;28;20056;-69
2023/11/03 09:11:43;;;;;;;12.90;2.67;;;;;;;10.62;82.82;98198.97;5026043;28;20042;-70
2023/11/03 09:14:09;;;;;;;10.32;1.80;;;;;;;10.57;82.41;98208.41;5022369;28;20017;-71
2023/11/03 09:16:35;;;;;;;9.05;1.40;;;;;;;10.58;82.51;98208.19;5007743;28;20045;-70
2023/11/03 09:19:04;;;;;;;9.55;1.48;;;;;;;10.64;82.53;98219.47;5022850;28;20042;-71
2023/11/03 09:21:29;;;;;;;6.97;1.42;;;;;;;10.77;83.28;98221.13;5006325;28;20117;-71
2023/11/03 09:23:55;;;;;;;12.95;1.15;;;;;;;10.81;82.52;98237.81;5024119;28;20623;-72
2023/11/03 09:26:23;;;;;;;13.65;1.40;;;;;;;10.72;82.12;98229.56;5017361;28;20046;-69
2023/11/03 09:28:50;;;;;;;8.05;1.60;;;;;;;10.87;82.34;98239.53;5020857;28;20026;-71
2023/11/03 09:31:15;;;;;;;14.80;1.60;;;;;;;10.86;81.90;98243.91;5020922;28;20961;-70
2023/11/03 09:33:42;;;;;;;10.60;1.60;;;;;;;10.73;81.31;98240.72;5002977;28;20025;-71
2023/11/03 09:36:08;;;;;;;10.85;1.30;;;;;;;10.73;82.04;98249.28;5023683;28;20101;-71
2023/11/03 09:38:34;;;;;;;11.60;1.55;;;;;;;10.78;81.47;98259.78;5022475;28;20096;-71
2023/11/03 09:41:00;;;;;;;12.18;1.63;;;;;;;10.78;82.01;98264.19;5023476;28;21344;-70
2023/11/03 09:43:28;;;;;;;13.88;1.30;;;;;;;10.79;81.25;98271.72;5017537;28;20166;-71
2023/11/03 09:45:54;;;;;;;14.25;1.65;;;;;;;10.74;81.73;98283.75;5022436;28;20068;-71
2023/11/03 09:48:25;;;;;;;10.93;1.83;;;;;;;10.79;81.24;98270.94;5023531;28;20060;-70
2023/11/03 09:50:51;;;;;;;8.38;1.30;;;;;;;10.87;81.23;98273.25;5022800;28;20076;-71
2023/11/03 09:53:22;;;;;;;10.00;1.45;;;;;;;10.76;82.15;98282.53;5025123;28;20033;-70
2023/11/03 09:55:48;;;;;;;9.98;3.03;;;;;;;10.77;80.77;98284.09;5006764;28;20116;-70
2023/11/03 09:58:15;;;;;;;12.70;2.10;;;;;;;10.82;81.50;98275.69;5022532;28;20083;-71
2023/11/03 10:00:41;;;;;;;7.53;1.52;;;;;;;10.85;81.50;98301.16;5018133;28;20044;-71
2023/11/03 10:03:08;;;;;;;8.40;1.58;;;;;;;10.82;81.29;98299.81;5025885;28;20156;-70
2023/11/03 10:05:36;;;;;;;7.82;1.60;;;;;;;10.76;82.28;98307.69;5023086;28;20457;-71
2023/11/03 10:08:07;;;;;;;8.15;1.90;;;;;;;10.65;81.96;98299.59;5027818;28;20113;-70
2023/11/03 10:10:37;;;;;;;9.40;1.45;;;;;;;10.69;82.01;98312.94;5019054;28;20061;-71
2023/11/03 10:13:09;;;;;;;16.38;2.08;;;;;;;10.81;81.83;98308.59;5035545;28;20022;-70
2023/11/03 10:15:39;;;;;;;16.13;1.57;;;;;;;10.74;81.83;98304.47;5005153;28;20056;-70
2023/11/03 10:18:04;;;;;;;14.52;1.45;;;;;;;10.83;81.60;98305.78;5017799;28;20483;-72
2023/11/03 10:20:30;;;;;;;65.28;21.23;;;;;;;10.83;81.29;98305.78;5020118;28;20369;-70
2023/11/03 10:22:56;;;;;;;14.38;2.58;;;;;;;10.74;80.62;98313.06;5020736;28;20065;-70
2023/11/03 10:25:26;;;;;;;14.30;1.60;;;;;;;10.81;81.16;98323.34;5017253;28;20037;-70
2023/11/03 10:27:54;;;;;;;12.50;1.33;;;;;;;10.86;80.85;98331.28;5025429;28;20279;-71
2023/11/03 10:30:21;;;;;;;6.82;1.25;;;;;;;10.80;81.48;98316.59;5019378;28;20676;-71
2023/11/03 10:32:47;;;;;;;15.10;1.95;;;;;;;10.82;80.68;98320.53;5006081;28;20042;-70
2023/11/03 10:35:13;;;;;;;7.85;1.27;;;;;;;10.80;81.21;98316.59;5023478;28;20120;-71
2023/11/03 10:37:40;;;;;;;10.40;1.73;;;;;;;10.79;80.72;98313.19;5021900;28;20790;-72
2023/11/03 10:40:12;;;;;;;11.70;1.45;;;;;;;10.83;80.37;98322.13;5020995;28;20037;-71
2023/11/03 10:42:40;;;;;;;13.48;1.90;;;;;;;10.85;80.95;98327.09;5017701;28;20635;-70
2023/11/03 10:45:10;;;;;;;14.80;1.73;;;;;;;10.77;81.56;98325.56;5019059;28;20037;-70
2023/11/03 10:48:03;;;;;;;12.48;1.60;;;;;;;10.81;81.85;98318.97;5024527;28;20292;-71
2023/11/03 10:50:37;;;;;;;7.97;1.92;;;;;;;10.71;81.23;98310.91;5018949;28;20042;-70
2023/11/03 10:53:23;;;;;;;20.23;2.83;;;;;;;10.86;80.18;98328.69;5017710;28;20387;-71
2023/11/03 10:56:00;;;;;;;9.57;1.80;;;;;;;10.91;79.73;98314.06;5020248;28;20590;-70
2023/11/03 10:58:26;;;;;;;9.77;2.10;;;;;;;10.90;79.39;98324.63;5002719;28;20030;-72
2023/11/03 11:00:55;;;;;;;8.35;1.00;;;;;;;10.98;79.78;98303.63;5018849;28;20046;-71
2023/11/03 11:03:42;;;;;;;13.88;1.88;;;;;;;11.01;79.22;98308.34;5010152;28;20469;-70
2023/11/03 11:06:20;;;;;;;18.38;1.38;;;;;;;11.13;79.56;98307.59;5003984;28;20048;-70
2023/11/03 11:08:48;;;;;;;12.82;1.73;;;;;;;11.27;78.94;98324.59;5002510;28;20417;-71
2023/11/03 11:11:15;;;;;;;10.73;1.50;;;;;;;11.21;78.51;98309.91;5016411;28;20844;-70
2023/11/03 11:13:43;;;;;;;10.82;1.50;;;;;;;11.09;78.59;98312.44;5005579;28;20021;-72
2023/11/03 11:16:11;;;;;;;11.07;1.50;;;;;;;11.12;79.08;98319.78;5023899;28;20033;-70
2023/11/03 11:18:56;;;;;;;11.50;1.60;;;;;;;11.06;78.97;98311.09;5020932;28;20029;-72
2023/11/03 11:21:34;;;;;;;9.95;1.67;;;;;;;11.22;79.06;98321.84;5018846;28;20578;-71
2023/11/03 11:24:01;;;;;;;18.10;1.60;;;;;;;11.24;79.12;98318.00;5019087;28;20116;-70
2023/11/03 11:26:31;;;;;;;14.77;2.75;;;;;;;11.17;78.13;98324.31;5020904;28;20037;-71
2023/11/03 11:28:59;;;;;;;21.38;1.98;;;;;;;11.28;78.45;98313.19;5015436;28;20503;-71
2023/11/03 11:31:28;;;;;;;10.73;1.52;;;;;;;11.46;78.53;98313.13;5022264;28;20046;-71
2023/11/03 11:34:12;;;;;;;12.18;1.55;;;;;;;11.47;76.67;98322.50;5009131;28;20033;-72